sensor_id;sensor_type;location;lat;lon;timestamp;temperature;humidity
70734;DHT22;58320;48.804;9.252;2022-08-21T00:00:14;15.80;74.80
70734;DHT22;58320;48.804;9.252;2022-08-21T00:02:49;15.80;75.10
70734;DHT22;58320;48.804;9.252;2022-08-21T00:05:21;15.70;75.30
70734;DHT22;58320;48.804;9.252;2022-08-21T00:07:48;15.60;75.80
70734;DHT22;58320;48.804;9.252;2022-08-21T00:10:14;15.60;76.20
70734;DHT22;58320;48.804;9.252;2022-08-21T00:12:41;15.60;76.40
70734;DHT22;58320;48.804;9.252;2022-08-21T00:15:09;15.50;76.80
70734;DHT22;58320;48.804;9.252;2022-08-21T00:17:36;15.40;77.30
70734;DHT22;58320;48.804;9.252;2022-08-21T00:20:05;15.40;77.40
70734;DHT22;58320;48.804;9.252;2022-08-21T00:22:34;15.30;77.60
70734;DHT22;58320;48.804;9.252;2022-08-21T00:25:01;15.20;78.00
70734;DHT22;58320;48.804;9.252;2022-08-21T00:27:28;15.20;78.30
70734;DHT22;58320;48.804;9.252;2022-08-21T00:29:54;15.10;78.80
70734;DHT22;58320;48.804;9.252;2022-08-21T00:32:25;15.10;79.40
70734;DHT22;58320;48.804;9.252;2022-08-21T00:34:52;15.10;79.80
70734;DHT22;58320;48.804;9.252;2022-08-21T00:37:19;15.10;80.10
70734;DHT22;58320;48.804;9.252;2022-08-21T00:39:45;15.00;80.40
70734;DHT22;58320;48.804;9.252;2022-08-21T00:42:12;15.00;80.60
70734;DHT22;58320;48.804;9.252;2022-08-21T00:44:46;15.00;80.90
70734;DHT22;58320;48.804;9.252;2022-08-21T00:47:16;14.90;81.10
70734;DHT22;58320;48.804;9.252;2022-08-21T00:49:43;14.90;81.30
70734;DHT22;58320;48.804;9.252;2022-08-21T00:52:17;14.90;81.30
70734;DHT22;58320;48.804;9.252;2022-08-21T00:54:48;14.90;81.70
70734;DHT22;58320;48.804;9.252;2022-08-21T00:57:22;14.80;82.00
70734;DHT22;58320;48.804;9.252;2022-08-21T00:59:54;14.80;82.10
70734;DHT22;58320;48.804;9.252;2022-08-21T01:02:21;14.80;82.60
70734;DHT22;58320;48.804;9.252;2022-08-21T01:04:47;14.70;82.80
70734;DHT22;58320;48.804;9.252;2022-08-21T01:07:14;14.70;82.80
70734;DHT22;58320;48.804;9.252;2022-08-21T01:09:41;14.60;83.20
70734;DHT22;58320;48.804;9.252;2022-08-21T01:12:07;14.60;83.30
70734;DHT22;58320;48.804;9.252;2022-08-21T01:14:34;14.50;83.60
70734;DHT22;58320;48.804;9.252;2022-08-21T01:17:02;14.50;84.10
70734;DHT22;58320;48.804;9.252;2022-08-21T01:19:29;14.50;84.20
70734;DHT22;58320;48.804;9.252;2022-08-21T01:21:55;14.40;84.60
70734;DHT22;58320;48.804;9.252;2022-08-21T01:24:22;14.40;84.80
70734;DHT22;58320;48.804;9.252;2022-08-21T01:26:49;14.40;84.80
70734;DHT22;58320;48.804;9.252;2022-08-21T01:32:13;14.30;85.30
70734;DHT22;58320;48.804;9.252;2022-08-21T01:34:44;14.30;85.50
70734;DHT22;58320;48.804;9.252;2022-08-21T01:37:12;14.20;85.60
70734;DHT22;58320;48.804;9.252;2022-08-21T01:39:39;14.20;85.90
70734;DHT22;58320;48.804;9.252;2022-08-21T01:42:06;14.20;86.20
70734;DHT22;58320;48.804;9.252;2022-08-21T01:44:32;14.20;86.30
70734;DHT22;58320;48.804;9.252;2022-08-21T01:47:00;14.10;86.30
70734;DHT22;58320;48.804;9.252;2022-08-21T01:49:28;14.10;86.50
70734;DHT22;58320;48.804;9.252;2022-08-21T01:51:53;14.10;86.70
70734;DHT22;58320;48.804;9.252;2022-08-21T01:54:19;14.10;86.70
70734;DHT22;58320;48.804;9.252;2022-08-21T01:56:48;14.10;86.80
70734;DHT22;58320;48.804;9.252;2022-08-21T01:59:16;14.00;87.00
70734;DHT22;58320;48.804;9.252;2022-08-21T02:01:43;14.00;87.30
70734;DHT22;58320;48.804;9.252;2022-08-21T02:04:09;13.90;87.40
70734;DHT22;58320;48.804;9.252;2022-08-21T02:06:36;13.90;87.50
70734;DHT22;58320;48.804;9.252;2022-08-21T02:09:04;13.90;87.80
70734;DHT22;58320;48.804;9.252;2022-08-21T02:11:32;13.90;87.90
70734;DHT22;58320;48.804;9.252;2022-08-21T02:13:58;13.90;88.10
70734;DHT22;58320;48.804;9.252;2022-08-21T02:16:24;13.90;88.20
70734;DHT22;58320;48.804;9.252;2022-08-21T02:18:51;13.90;88.30
70734;DHT22;58320;48.804;9.252;2022-08-21T02:21:17;13.80;88.20
70734;DHT22;58320;48.804;9.252;2022-08-21T02:23:43;13.80;88.30
70734;DHT22;58320;48.804;9.252;2022-08-21T02:26:09;13.80;88.60
70734;DHT22;58320;48.804;9.252;2022-08-21T02:28:36;13.80;88.60
70734;DHT22;58320;48.804;9.252;2022-08-21T02:31:03;13.70;88.50
70734;DHT22;58320;48.804;9.252;2022-08-21T02:33:30;13.70;88.50
70734;DHT22;58320;48.804;9.252;2022-08-21T02:35:57;13.70;88.70
70734;DHT22;58320;48.804;9.252;2022-08-21T02:38:33;13.70;88.80
70734;DHT22;58320;48.804;9.252;2022-08-21T02:41:04;13.70;89.00
70734;DHT22;58320;48.804;9.252;2022-08-21T02:43:34;13.60;89.00
70734;DHT22;58320;48.804;9.252;2022-08-21T02:46:03;13.60;88.80
70734;DHT22;58320;48.804;9.252;2022-08-21T02:48:32;13.50;88.80
70734;DHT22;58320;48.804;9.252;2022-08-21T02:51:01;13.50;89.10
70734;DHT22;58320;48.804;9.252;2022-08-21T02:53:30;13.40;89.80
70734;DHT22;58320;48.804;9.252;2022-08-21T02:55:58;13.40;90.00
70734;DHT22;58320;48.804;9.252;2022-08-21T02:58:27;13.40;90.20
70734;DHT22;58320;48.804;9.252;2022-08-21T03:00:56;13.40;90.50
70734;DHT22;58320;48.804;9.252;2022-08-21T03:03:24;13.40;90.50
70734;DHT22;58320;48.804;9.252;2022-08-21T03:05:51;13.40;90.60
70734;DHT22;58320;48.804;9.252;2022-08-21T03:08:17;13.40;90.80
70734;DHT22;58320;48.804;9.252;2022-08-21T03:10:46;13.40;91.00
70734;DHT22;58320;48.804;9.252;2022-08-21T03:13:16;13.40;91.00
70734;DHT22;58320;48.804;9.252;2022-08-21T03:15:44;13.40;90.80
70734;DHT22;58320;48.804;9.252;2022-08-21T03:18:11;13.40;90.70
70734;DHT22;58320;48.804;9.252;2022-08-21T03:20:39;13.40;90.50
70734;DHT22;58320;48.804;9.252;2022-08-21T03:23:06;13.30;90.40
70734;DHT22;58320;48.804;9.252;2022-08-21T03:25:33;13.30;90.50
70734;DHT22;58320;48.804;9.252;2022-08-21T03:28:04;13.30;90.40
70734;DHT22;58320;48.804;9.252;2022-08-21T03:30:32;13.20;90.60
70734;DHT22;58320;48.804;9.252;2022-08-21T03:32:59;13.20;90.80
70734;DHT22;58320;48.804;9.252;2022-08-21T03:35:26;13.20;90.90
70734;DHT22;58320;48.804;9.252;2022-08-21T03:37:53;13.20;91.00
70734;DHT22;58320;48.804;9.252;2022-08-21T03:40:21;13.20;90.90
70734;DHT22;58320;48.804;9.252;2022-08-21T03:42:47;13.20;91.00
70734;DHT22;58320;48.804;9.252;2022-08-21T03:45:15;13.10;91.20
70734;DHT22;58320;48.804;9.252;2022-08-21T03:47:57;13.10;91.10
70734;DHT22;58320;48.804;9.252;2022-08-21T03:50:26;13.10;91.20
70734;DHT22;58320;48.804;9.252;2022-08-21T03:52:54;13.10;91.40
70734;DHT22;58320;48.804;9.252;2022-08-21T03:55:21;13.10;91.20
70734;DHT22;58320;48.804;9.252;2022-08-21T03:57:47;13.10;91.20
70734;DHT22;58320;48.804;9.252;2022-08-21T04:00:15;13.00;91.00
70734;DHT22;58320;48.804;9.252;2022-08-21T04:02:41;13.00;90.80
70734;DHT22;58320;48.804;9.252;2022-08-21T04:05:10;13.00;91.00
70734;DHT22;58320;48.804;9.252;2022-08-21T04:07:37;12.90;91.10
70734;DHT22;58320;48.804;9.252;2022-08-21T04:10:05;12.90;91.50
70734;DHT22;58320;48.804;9.252;2022-08-21T04:12:32;12.90;91.50
70734;DHT22;58320;48.804;9.252;2022-08-21T04:14:58;12.90;91.50
70734;DHT22;58320;48.804;9.252;2022-08-21T04:17:24;13.00;91.50
70734;DHT22;58320;48.804;9.252;2022-08-21T04:19:50;13.00;91.50
70734;DHT22;58320;48.804;9.252;2022-08-21T04:22:16;13.00;91.50
70734;DHT22;58320;48.804;9.252;2022-08-21T04:24:42;13.00;91.40
70734;DHT22;58320;48.804;9.252;2022-08-21T04:27:08;13.00;91.30
70734;DHT22;58320;48.804;9.252;2022-08-21T04:29:34;13.00;91.30
70734;DHT22;58320;48.804;9.252;2022-08-21T04:32:00;13.00;91.30
70734;DHT22;58320;48.804;9.252;2022-08-21T04:34:25;13.00;91.50
70734;DHT22;58320;48.804;9.252;2022-08-21T04:36:51;13.00;91.60
70734;DHT22;58320;48.804;9.252;2022-08-21T04:39:17;13.00;92.00
70734;DHT22;58320;48.804;9.252;2022-08-21T04:41:43;13.00;91.90
70734;DHT22;58320;48.804;9.252;2022-08-21T04:44:08;13.10;91.90
70734;DHT22;58320;48.804;9.252;2022-08-21T04:46:34;13.10;92.00
70734;DHT22;58320;48.804;9.252;2022-08-21T04:49:00;13.20;92.00
70734;DHT22;58320;48.804;9.252;2022-08-21T04:51:30;13.20;91.70
70734;DHT22;58320;48.804;9.252;2022-08-21T04:54:11;13.30;91.20
70734;DHT22;58320;48.804;9.252;2022-08-21T04:56:56;13.40;91.10
70734;DHT22;58320;48.804;9.252;2022-08-21T04:59:36;13.40;90.90
70734;DHT22;58320;48.804;9.252;2022-08-21T05:02:06;13.40;90.70
70734;DHT22;58320;48.804;9.252;2022-08-21T05:04:37;13.50;90.60
70734;DHT22;58320;48.804;9.252;2022-08-21T05:07:12;13.40;90.40
70734;DHT22;58320;48.804;9.252;2022-08-21T05:09:41;13.50;90.40
70734;DHT22;58320;48.804;9.252;2022-08-21T05:12:07;13.50;90.30
70734;DHT22;58320;48.804;9.252;2022-08-21T05:14:33;13.50;90.20
70734;DHT22;58320;48.804;9.252;2022-08-21T05:16:59;13.60;90.10
70734;DHT22;58320;48.804;9.252;2022-08-21T05:19:25;13.60;89.90
70734;DHT22;58320;48.804;9.252;2022-08-21T05:21:51;13.70;89.60
70734;DHT22;58320;48.804;9.252;2022-08-21T05:24:17;13.80;89.30
70734;DHT22;58320;48.804;9.252;2022-08-21T05:26:44;13.80;89.10
70734;DHT22;58320;48.804;9.252;2022-08-21T05:29:10;13.90;88.80
70734;DHT22;58320;48.804;9.252;2022-08-21T05:31:37;13.90;88.50
70734;DHT22;58320;48.804;9.252;2022-08-21T05:34:05;14.00;88.20
70734;DHT22;58320;48.804;9.252;2022-08-21T05:36:31;14.10;87.90
70734;DHT22;58320;48.804;9.252;2022-08-21T05:38:57;14.10;87.50
70734;DHT22;58320;48.804;9.252;2022-08-21T05:41:23;14.30;87.30
70734;DHT22;58320;48.804;9.252;2022-08-21T05:43:49;14.30;86.90
70734;DHT22;58320;48.804;9.252;2022-08-21T05:46:15;14.40;86.40
70734;DHT22;58320;48.804;9.252;2022-08-21T05:48:40;14.50;85.70
70734;DHT22;58320;48.804;9.252;2022-08-21T05:51:13;14.60;85.40
70734;DHT22;58320;48.804;9.252;2022-08-21T05:53:41;14.70;85.30
70734;DHT22;58320;48.804;9.252;2022-08-21T05:56:08;14.70;85.40
70734;DHT22;58320;48.804;9.252;2022-08-21T05:58:34;14.80;85.50
70734;DHT22;58320;48.804;9.252;2022-08-21T06:01:01;15.00;85.60
70734;DHT22;58320;48.804;9.252;2022-08-21T06:03:31;15.10;85.30
70734;DHT22;58320;48.804;9.252;2022-08-21T06:06:00;15.20;84.60
70734;DHT22;58320;48.804;9.252;2022-08-21T06:08:27;15.30;84.20
70734;DHT22;58320;48.804;9.252;2022-08-21T06:10:54;15.50;83.60
70734;DHT22;58320;48.804;9.252;2022-08-21T06:13:22;15.60;83.50
70734;DHT22;58320;48.804;9.252;2022-08-21T06:15:48;15.80;82.70
70734;DHT22;58320;48.804;9.252;2022-08-21T06:18:15;15.90;82.50
70734;DHT22;58320;48.804;9.252;2022-08-21T06:20:41;16.00;81.60
70734;DHT22;58320;48.804;9.252;2022-08-21T06:23:08;16.10;81.50
70734;DHT22;58320;48.804;9.252;2022-08-21T06:25:34;16.30;80.50
70734;DHT22;58320;48.804;9.252;2022-08-21T06:28:05;16.40;79.90
70734;DHT22;58320;48.804;9.252;2022-08-21T06:30:34;16.60;79.20
70734;DHT22;58320;48.804;9.252;2022-08-21T06:33:02;16.70;78.70
70734;DHT22;58320;48.804;9.252;2022-08-21T06:35:28;16.90;78.10
70734;DHT22;58320;48.804;9.252;2022-08-21T06:37:56;17.00;77.20
70734;DHT22;58320;48.804;9.252;2022-08-21T06:40:22;17.10;75.70
70734;DHT22;58320;48.804;9.252;2022-08-21T06:42:48;17.30;76.00
70734;DHT22;58320;48.804;9.252;2022-08-21T06:45:14;17.40;74.80
70734;DHT22;58320;48.804;9.252;2022-08-21T06:47:40;17.60;73.30
70734;DHT22;58320;48.804;9.252;2022-08-21T06:50:07;17.70;73.90
70734;DHT22;58320;48.804;9.252;2022-08-21T06:52:37;17.90;72.10
70734;DHT22;58320;48.804;9.252;2022-08-21T06:55:08;18.00;71.00
70734;DHT22;58320;48.804;9.252;2022-08-21T06:57:35;18.10;70.00
70734;DHT22;58320;48.804;9.252;2022-08-21T07:00:04;18.30;69.10
70734;DHT22;58320;48.804;9.252;2022-08-21T07:02:31;18.40;68.30
70734;DHT22;58320;48.804;9.252;2022-08-21T07:04:58;18.60;67.80
70734;DHT22;58320;48.804;9.252;2022-08-21T07:07:24;18.70;67.60
70734;DHT22;58320;48.804;9.252;2022-08-21T07:09:50;18.80;67.10
70734;DHT22;58320;48.804;9.252;2022-08-21T07:12:16;19.00;66.80
70734;DHT22;58320;48.804;9.252;2022-08-21T07:14:42;19.10;65.80
70734;DHT22;58320;48.804;9.252;2022-08-21T07:17:08;19.30;64.80
70734;DHT22;58320;48.804;9.252;2022-08-21T07:19:33;19.40;64.40
70734;DHT22;58320;48.804;9.252;2022-08-21T07:22:02;19.60;64.40
70734;DHT22;58320;48.804;9.252;2022-08-21T07:24:29;19.70;60.40
70734;DHT22;58320;48.804;9.252;2022-08-21T07:26:55;19.90;60.70
70734;DHT22;58320;48.804;9.252;2022-08-21T07:29:21;20.00;60.90
70734;DHT22;58320;48.804;9.252;2022-08-21T07:31:47;20.10;58.50
70734;DHT22;58320;48.804;9.252;2022-08-21T07:34:13;20.20;58.50
70734;DHT22;58320;48.804;9.252;2022-08-21T07:36:39;20.20;58.30
70734;DHT22;58320;48.804;9.252;2022-08-21T07:39:04;20.30;58.50
70734;DHT22;58320;48.804;9.252;2022-08-21T07:41:30;20.50;57.80
70734;DHT22;58320;48.804;9.252;2022-08-21T07:43:58;20.50;57.80
70734;DHT22;58320;48.804;9.252;2022-08-21T07:46:25;20.50;57.70
70734;DHT22;58320;48.804;9.252;2022-08-21T07:48:52;20.50;57.60
70734;DHT22;58320;48.804;9.252;2022-08-21T07:51:18;20.50;57.40
70734;DHT22;58320;48.804;9.252;2022-08-21T07:53:51;20.60;57.00
70734;DHT22;58320;48.804;9.252;2022-08-21T07:56:18;20.60;57.00
70734;DHT22;58320;48.804;9.252;2022-08-21T07:58:44;20.70;56.60
70734;DHT22;58320;48.804;9.252;2022-08-21T08:01:10;20.80;56.40
70734;DHT22;58320;48.804;9.252;2022-08-21T08:03:36;20.90;56.60
70734;DHT22;58320;48.804;9.252;2022-08-21T08:06:02;21.10;55.60
70734;DHT22;58320;48.804;9.252;2022-08-21T08:08:30;21.30;56.40
70734;DHT22;58320;48.804;9.252;2022-08-21T08:10:57;21.50;55.90
70734;DHT22;58320;48.804;9.252;2022-08-21T08:13:24;21.70;55.00
70734;DHT22;58320;48.804;9.252;2022-08-21T08:15:50;21.90;55.00
70734;DHT22;58320;48.804;9.252;2022-08-21T08:18:16;22.00;54.00
70734;DHT22;58320;48.804;9.252;2022-08-21T08:20:42;22.10;53.30
70734;DHT22;58320;48.804;9.252;2022-08-21T08:23:14;22.10;52.10
70734;DHT22;58320;48.804;9.252;2022-08-21T08:25:41;22.10;52.00
70734;DHT22;58320;48.804;9.252;2022-08-21T08:28:07;22.10;52.30
70734;DHT22;58320;48.804;9.252;2022-08-21T08:30:33;22.10;51.00
70734;DHT22;58320;48.804;9.252;2022-08-21T08:32:59;22.10;51.40
70734;DHT22;58320;48.804;9.252;2022-08-21T08:35:26;22.10;51.40
70734;DHT22;58320;48.804;9.252;2022-08-21T08:37:54;22.20;52.10
70734;DHT22;58320;48.804;9.252;2022-08-21T08:40:33;22.30;51.30
70734;DHT22;58320;48.804;9.252;2022-08-21T08:43:03;22.40;51.80
70734;DHT22;58320;48.804;9.252;2022-08-21T08:45:32;22.60;50.60
70734;DHT22;58320;48.804;9.252;2022-08-21T08:48:05;22.70;50.80
70734;DHT22;58320;48.804;9.252;2022-08-21T08:50:47;22.90;49.90
70734;DHT22;58320;48.804;9.252;2022-08-21T08:56:01;23.10;48.80
70734;DHT22;58320;48.804;9.252;2022-08-21T08:58:36;23.00;48.50
70734;DHT22;58320;48.804;9.252;2022-08-21T09:01:11;23.00;49.90
70734;DHT22;58320;48.804;9.252;2022-08-21T09:03:40;23.10;49.00
70734;DHT22;58320;48.804;9.252;2022-08-21T09:06:10;23.30;49.40
70734;DHT22;58320;48.804;9.252;2022-08-21T09:09:21;23.40;48.90
70734;DHT22;58320;48.804;9.252;2022-08-21T09:16:05;23.80;48.10
70734;DHT22;58320;48.804;9.252;2022-08-21T09:21:23;23.90;46.50
70734;DHT22;58320;48.804;9.252;2022-08-21T09:24:31;24.00;46.80
70734;DHT22;58320;48.804;9.252;2022-08-21T09:27:10;24.00;47.10
70734;DHT22;58320;48.804;9.252;2022-08-21T09:29:42;23.90;47.00
70734;DHT22;58320;48.804;9.252;2022-08-21T09:32:17;23.90;46.90
70734;DHT22;58320;48.804;9.252;2022-08-21T09:35:07;24.00;48.30
70734;DHT22;58320;48.804;9.252;2022-08-21T09:37:55;24.20;48.10
70734;DHT22;58320;48.804;9.252;2022-08-21T09:40:44;24.40;48.90
70734;DHT22;58320;48.804;9.252;2022-08-21T09:45:39;24.70;46.20
70734;DHT22;58320;48.804;9.252;2022-08-21T09:48:22;24.70;45.40
70734;DHT22;58320;48.804;9.252;2022-08-21T09:50:50;24.70;43.50
70734;DHT22;58320;48.804;9.252;2022-08-21T09:53:27;24.70;44.10
70734;DHT22;58320;48.804;9.252;2022-08-21T09:55:57;24.70;44.70
70734;DHT22;58320;48.804;9.252;2022-08-21T09:58:46;24.80;44.10
70734;DHT22;58320;48.804;9.252;2022-08-21T10:01:20;24.90;44.80
70734;DHT22;58320;48.804;9.252;2022-08-21T10:03:49;25.10;44.90
70734;DHT22;58320;48.804;9.252;2022-08-21T10:06:28;25.40;44.50
70734;DHT22;58320;48.804;9.252;2022-08-21T10:09:10;25.50;43.90
70734;DHT22;58320;48.804;9.252;2022-08-21T10:11:38;25.40;44.30
70734;DHT22;58320;48.804;9.252;2022-08-21T10:17:07;25.50;43.50
70734;DHT22;58320;48.804;9.252;2022-08-21T10:19:47;25.40;43.00
70734;DHT22;58320;48.804;9.252;2022-08-21T10:26:11;25.40;43.50
70734;DHT22;58320;48.804;9.252;2022-08-21T10:28:47;25.60;43.60
70734;DHT22;58320;48.804;9.252;2022-08-21T10:34:30;26.00;41.80
70734;DHT22;58320;48.804;9.252;2022-08-21T10:48:35;26.40;40.60
70734;DHT22;58320;48.804;9.252;2022-08-21T10:51:20;26.60;39.80
70734;DHT22;58320;48.804;9.252;2022-08-21T10:54:10;26.60;39.90
70734;DHT22;58320;48.804;9.252;2022-08-21T10:56:43;26.60;40.10
70734;DHT22;58320;48.804;9.252;2022-08-21T11:02:15;26.70;39.60
70734;DHT22;58320;48.804;9.252;2022-08-21T11:04:57;26.70;39.10
70734;DHT22;58320;48.804;9.252;2022-08-21T11:07:30;26.70;40.00
70734;DHT22;58320;48.804;9.252;2022-08-21T11:10:04;26.70;39.50
70734;DHT22;58320;48.804;9.252;2022-08-21T11:12:46;26.80;40.10
70734;DHT22;58320;48.804;9.252;2022-08-21T11:18:24;27.10;39.40
70734;DHT22;58320;48.804;9.252;2022-08-21T11:24:17;27.60;38.20
70734;DHT22;58320;48.804;9.252;2022-08-21T11:29:41;28.40;37.40
70734;DHT22;58320;48.804;9.252;2022-08-21T11:40:51;32.80;30.50
70734;DHT22;58320;48.804;9.252;2022-08-21T11:43:48;33.40;30.70
70734;DHT22;58320;48.804;9.252;2022-08-21T11:46:49;33.90;29.30
70734;DHT22;58320;48.804;9.252;2022-08-21T11:52:44;34.80;28.30
70734;DHT22;58320;48.804;9.252;2022-08-21T11:55:30;35.20;28.50
70734;DHT22;58320;48.804;9.252;2022-08-21T12:01:14;36.40;27.30
70734;DHT22;58320;48.804;9.252;2022-08-21T12:03:55;36.90;26.50
70734;DHT22;58320;48.804;9.252;2022-08-21T12:06:40;36.70;26.20
70734;DHT22;58320;48.804;9.252;2022-08-21T12:09:30;36.10;26.90
70734;DHT22;58320;48.804;9.252;2022-08-21T12:12:03;35.90;26.80
70734;DHT22;58320;48.804;9.252;2022-08-21T12:14:47;36.10;26.50
70734;DHT22;58320;48.804;9.252;2022-08-21T12:17:23;36.60;26.70
70734;DHT22;58320;48.804;9.252;2022-08-21T12:20:01;36.90;26.10
70734;DHT22;58320;48.804;9.252;2022-08-21T12:22:41;37.20;25.50
70734;DHT22;58320;48.804;9.252;2022-08-21T12:25:11;37.00;25.30
70734;DHT22;58320;48.804;9.252;2022-08-21T12:27:53;35.10;26.70
70734;DHT22;58320;48.804;9.252;2022-08-21T12:32:58;32.80;29.70
70734;DHT22;58320;48.804;9.252;2022-08-21T12:35:42;32.80;29.00
70734;DHT22;58320;48.804;9.252;2022-08-21T12:38:27;33.40;29.30
70734;DHT22;58320;48.804;9.252;2022-08-21T12:41:06;34.10;28.20
70734;DHT22;58320;48.804;9.252;2022-08-21T12:43:41;34.60;27.20
70734;DHT22;58320;48.804;9.252;2022-08-21T12:46:29;34.50;27.10
70734;DHT22;58320;48.804;9.252;2022-08-21T12:52:01;34.50;27.60
70734;DHT22;58320;48.804;9.252;2022-08-21T12:54:32;34.90;27.30
70734;DHT22;58320;48.804;9.252;2022-08-21T12:57:06;35.70;26.90
70734;DHT22;58320;48.804;9.252;2022-08-21T12:59:38;36.50;26.20
70734;DHT22;58320;48.804;9.252;2022-08-21T13:02:17;37.10;25.20
70734;DHT22;58320;48.804;9.252;2022-08-21T13:04:46;37.40;25.00
70734;DHT22;58320;48.804;9.252;2022-08-21T13:07:16;37.80;25.20
70734;DHT22;58320;48.804;9.252;2022-08-21T13:10:23;37.50;24.90
70734;DHT22;58320;48.804;9.252;2022-08-21T13:12:57;38.10;24.70
70734;DHT22;58320;48.804;9.252;2022-08-21T13:15:37;38.70;24.40
70734;DHT22;58320;48.804;9.252;2022-08-21T13:18:06;39.10;23.70
70734;DHT22;58320;48.804;9.252;2022-08-21T13:20:35;38.60;24.20
70734;DHT22;58320;48.804;9.252;2022-08-21T13:23:18;39.20;23.70
70734;DHT22;58320;48.804;9.252;2022-08-21T13:25:55;39.30;23.70
70734;DHT22;58320;48.804;9.252;2022-08-21T13:28:22;39.60;23.50
70734;DHT22;58320;48.804;9.252;2022-08-21T13:30:50;38.90;23.40
70734;DHT22;58320;48.804;9.252;2022-08-21T13:33:21;36.90;24.60
70734;DHT22;58320;48.804;9.252;2022-08-21T13:38:33;32.40;28.10
70734;DHT22;58320;48.804;9.252;2022-08-21T13:43:46;29.50;31.70
70734;DHT22;58320;48.804;9.252;2022-08-21T13:46:14;29.20;32.70
70734;DHT22;58320;48.804;9.252;2022-08-21T13:48:41;30.10;31.60
70734;DHT22;58320;48.804;9.252;2022-08-21T13:51:08;31.80;30.20
70734;DHT22;58320;48.804;9.252;2022-08-21T13:53:48;33.60;28.20
70734;DHT22;58320;48.804;9.252;2022-08-21T13:56:33;34.70;27.10
70734;DHT22;58320;48.804;9.252;2022-08-21T13:59:07;35.60;25.30
70734;DHT22;58320;48.804;9.252;2022-08-21T14:01:36;35.50;25.30
70734;DHT22;58320;48.804;9.252;2022-08-21T14:04:22;36.30;25.60
70734;DHT22;58320;48.804;9.252;2022-08-21T14:06:50;37.60;24.60
70734;DHT22;58320;48.804;9.252;2022-08-21T14:09:32;38.30;24.10
70734;DHT22;58320;48.804;9.252;2022-08-21T14:12:10;39.10;23.30
70734;DHT22;58320;48.804;9.252;2022-08-21T14:14:39;39.40;23.00
70734;DHT22;58320;48.804;9.252;2022-08-21T14:17:08;39.10;23.20
70734;DHT22;58320;48.804;9.252;2022-08-21T14:19:41;38.50;23.40
70734;DHT22;58320;48.804;9.252;2022-08-21T14:25:14;38.30;23.80
70734;DHT22;58320;48.804;9.252;2022-08-21T14:30:33;39.10;23.10
70734;DHT22;58320;48.804;9.252;2022-08-21T14:33:02;39.60;22.90
70734;DHT22;58320;48.804;9.252;2022-08-21T14:35:29;39.80;22.80
70734;DHT22;58320;48.804;9.252;2022-08-21T14:37:55;40.00;22.30
70734;DHT22;58320;48.804;9.252;2022-08-21T14:40:23;39.80;22.40
70734;DHT22;58320;48.804;9.252;2022-08-21T14:42:50;40.10;22.30
70734;DHT22;58320;48.804;9.252;2022-08-21T14:45:21;40.10;22.50
70734;DHT22;58320;48.804;9.252;2022-08-21T14:47:50;40.20;22.30
70734;DHT22;58320;48.804;9.252;2022-08-21T14:50:16;40.20;22.20
70734;DHT22;58320;48.804;9.252;2022-08-21T14:52:42;40.40;22.10
70734;DHT22;58320;48.804;9.252;2022-08-21T14:55:12;40.50;21.70
70734;DHT22;58320;48.804;9.252;2022-08-21T14:57:41;40.40;22.00
70734;DHT22;58320;48.804;9.252;2022-08-21T15:00:12;40.20;22.20
70734;DHT22;58320;48.804;9.252;2022-08-21T15:02:40;40.10;21.90
70734;DHT22;58320;48.804;9.252;2022-08-21T15:05:06;40.00;22.30
70734;DHT22;58320;48.804;9.252;2022-08-21T15:07:32;40.40;22.10
70734;DHT22;58320;48.804;9.252;2022-08-21T15:09:58;40.70;22.10
70734;DHT22;58320;48.804;9.252;2022-08-21T15:12:24;40.70;21.70
70734;DHT22;58320;48.804;9.252;2022-08-21T15:14:51;40.50;21.80
70734;DHT22;58320;48.804;9.252;2022-08-21T15:17:18;40.40;21.60
70734;DHT22;58320;48.804;9.252;2022-08-21T15:19:44;40.50;21.70
70734;DHT22;58320;48.804;9.252;2022-08-21T15:22:10;40.30;21.90
70734;DHT22;58320;48.804;9.252;2022-08-21T15:24:36;40.30;21.70
70734;DHT22;58320;48.804;9.252;2022-08-21T15:27:03;40.50;21.70
70734;DHT22;58320;48.804;9.252;2022-08-21T15:29:32;40.40;21.70
70734;DHT22;58320;48.804;9.252;2022-08-21T15:32:00;40.20;21.50
70734;DHT22;58320;48.804;9.252;2022-08-21T15:34:40;39.60;21.40
70734;DHT22;58320;48.804;9.252;2022-08-21T15:37:06;39.00;22.10
70734;DHT22;58320;48.804;9.252;2022-08-21T15:39:34;38.90;22.50
70734;DHT22;58320;48.804;9.252;2022-08-21T15:42:01;38.80;22.00
70734;DHT22;58320;48.804;9.252;2022-08-21T15:44:28;38.50;21.90
70734;DHT22;58320;48.804;9.252;2022-08-21T15:46:55;37.90;22.40
70734;DHT22;58320;48.804;9.252;2022-08-21T15:49:22;37.90;22.80
70734;DHT22;58320;48.804;9.252;2022-08-21T15:51:50;38.40;22.40
70734;DHT22;58320;48.804;9.252;2022-08-21T15:54:15;38.70;22.40
70734;DHT22;58320;48.804;9.252;2022-08-21T15:56:45;39.00;22.00
70734;DHT22;58320;48.804;9.252;2022-08-21T15:59:19;39.10;21.60
70734;DHT22;58320;48.804;9.252;2022-08-21T16:01:49;39.40;21.60
70734;DHT22;58320;48.804;9.252;2022-08-21T16:04:22;39.50;21.50
70734;DHT22;58320;48.804;9.252;2022-08-21T16:06:50;39.50;21.20
70734;DHT22;58320;48.804;9.252;2022-08-21T16:09:16;39.30;21.80
70734;DHT22;58320;48.804;9.252;2022-08-21T16:11:43;39.20;21.50
70734;DHT22;58320;48.804;9.252;2022-08-21T16:14:12;38.90;21.60
70734;DHT22;58320;48.804;9.252;2022-08-21T16:16:40;38.20;22.60
70734;DHT22;58320;48.804;9.252;2022-08-21T16:19:06;37.00;23.20
70734;DHT22;58320;48.804;9.252;2022-08-21T16:21:33;35.70;24.20
70734;DHT22;58320;48.804;9.252;2022-08-21T16:24:00;34.50;25.00
70734;DHT22;58320;48.804;9.252;2022-08-21T16:26:27;33.40;25.70
70734;DHT22;58320;48.804;9.252;2022-08-21T16:28:56;32.40;26.70
70734;DHT22;58320;48.804;9.252;2022-08-21T16:31:23;31.70;27.40
70734;DHT22;58320;48.804;9.252;2022-08-21T16:33:52;31.20;27.90
70734;DHT22;58320;48.804;9.252;2022-08-21T16:36:19;30.70;28.30
70734;DHT22;58320;48.804;9.252;2022-08-21T16:38:47;30.30;28.50
70734;DHT22;58320;48.804;9.252;2022-08-21T16:41:16;30.10;29.00
70734;DHT22;58320;48.804;9.252;2022-08-21T16:43:44;30.00;29.20
70734;DHT22;58320;48.804;9.252;2022-08-21T16:46:12;30.00;29.20
70734;DHT22;58320;48.804;9.252;2022-08-21T16:48:40;29.90;29.50
70734;DHT22;58320;48.804;9.252;2022-08-21T16:51:06;29.80;29.80
70734;DHT22;58320;48.804;9.252;2022-08-21T16:53:32;29.70;29.80
70734;DHT22;58320;48.804;9.252;2022-08-21T16:55:58;29.60;29.80
70734;DHT22;58320;48.804;9.252;2022-08-21T16:58:35;29.40;29.60
70734;DHT22;58320;48.804;9.252;2022-08-21T17:01:06;29.20;29.80
70734;DHT22;58320;48.804;9.252;2022-08-21T17:03:38;29.00;29.70
70734;DHT22;58320;48.804;9.252;2022-08-21T17:06:07;29.00;30.10
70734;DHT22;58320;48.804;9.252;2022-08-21T17:08:33;29.10;30.40